createdAt,value
2017-12-25T00:01:10.647Z,11.40
2017-12-25T00:03:38.889Z,11.40
2017-12-25T00:06:07.514Z,11.40
2017-12-25T00:08:35.780Z,11.50
2017-12-25T00:11:04.070Z,11.40
2017-12-25T00:13:32.705Z,11.50
2017-12-25T00:16:01.749Z,11.50
2017-12-25T00:18:30.011Z,11.50
2017-12-25T00:20:58.305Z,11.40
2017-12-25T00:23:26.605Z,11.40
2017-12-25T00:25:55.442Z,11.50
2017-12-25T00:28:23.699Z,11.50
2017-12-25T00:30:52.740Z,11.50
2017-12-25T00:33:21.351Z,11.50
2017-12-25T00:35:50.567Z,11.50
2017-12-25T00:38:18.866Z,11.50
2017-12-25T00:40:47.144Z,11.50
2017-12-25T00:43:15.424Z,11.50
2017-12-25T00:45:43.732Z,11.60
2017-12-25T00:48:11.999Z,11.60
2017-12-25T00:50:40.573Z,11.60
2017-12-25T00:53:08.842Z,11.50
2017-12-25T00:55:37.126Z,11.50
2017-12-25T00:58:05.416Z,11.50
2017-12-25T01:00:33.692Z,11.50
2017-12-25T01:03:02.321Z,11.50
2017-12-25T01:05:30.587Z,11.50
2017-12-25T01:07:58.845Z,11.50
2017-12-25T01:10:27.136Z,11.40
2017-12-25T01:12:55.411Z,11.40
2017-12-25T01:15:24.830Z,11.40
2017-12-25T01:17:53.090Z,11.40
2017-12-25T01:20:21.345Z,11.40
2017-12-25T01:22:49.643Z,11.40
2017-12-25T01:25:17.900Z,11.30
2017-12-25T01:27:46.215Z,11.30
2017-12-25T01:30:14.546Z,11.30
2017-12-25T01:32:43.119Z,11.20
2017-12-25T01:35:12.150Z,11.30
2017-12-25T01:37:40.438Z,11.20
2017-12-25T01:40:08.731Z,11.20
2017-12-25T01:42:36.991Z,11.30
2017-12-25T01:45:05.286Z,11.20
2017-12-25T01:47:33.600Z,11.20
2017-12-25T01:50:02.255Z,11.20
2017-12-25T01:52:32.139Z,11.20
2017-12-25T01:55:00.163Z,11.20
2017-12-25T01:57:28.756Z,11.20
2017-12-25T02:00:03.469Z,11.10
2017-12-25T02:02:34.322Z,11.10
2017-12-25T02:05:06.699Z,11.00
2017-12-25T02:07:46.441Z,11.00
2017-12-25T02:10:14.465Z,10.90
2017-12-25T02:12:42.790Z,10.90
2017-12-25T02:15:10.812Z,10.80
2017-12-25T02:17:39.082Z,10.80
2017-12-25T02:20:07.383Z,10.80
2017-12-25T02:22:35.676Z,10.80
2017-12-25T02:25:03.971Z,10.70
2017-12-25T02:27:33.007Z,10.50
2017-12-25T02:30:01.606Z,10.60
2017-12-25T02:32:29.858Z,10.50
2017-12-25T02:34:58.162Z,10.40
2017-12-25T02:37:26.442Z,10.30
2017-12-25T02:39:55.602Z,10.30
2017-12-25T02:42:23.901Z,10.20
2017-12-25T02:44:52.157Z,10.20
2017-12-25T02:47:20.796Z,10.10
2017-12-25T02:49:49.094Z,10.10
2017-12-25T02:52:17.352Z,10.10
2017-12-25T02:54:45.644Z,10.00
2017-12-25T02:57:13.914Z,10.00
2017-12-25T02:59:42.496Z,10.00
2017-12-25T03:02:10.773Z,10.00
2017-12-25T03:04:39.053Z,10.00
2017-12-25T03:07:07.356Z,10.10
2017-12-25T03:09:35.638Z,10.20
2017-12-25T03:12:03.925Z,10.20
2017-12-25T03:14:32.203Z,10.30
2017-12-25T03:17:00.754Z,10.30
2017-12-25T03:19:29.785Z,10.40
2017-12-25T03:21:58.052Z,10.40
2017-12-25T03:24:26.342Z,10.50
2017-12-25T03:26:54.635Z,10.60
2017-12-25T03:29:23.641Z,10.60
2017-12-25T03:31:52.688Z,10.60
2017-12-25T03:34:21.240Z,10.60
2017-12-25T03:36:49.495Z,10.60
2017-12-25T03:39:17.750Z,10.60
2017-12-25T03:41:46.036Z,10.60
2017-12-25T03:44:14.289Z,10.70
2017-12-25T03:46:42.916Z,10.70
2017-12-25T03:49:11.185Z,10.70
2017-12-25T03:51:39.444Z,10.70
2017-12-25T03:54:08.642Z,10.70
2017-12-25T03:56:37.670Z,10.70
2017-12-25T03:59:05.962Z,10.70
2017-12-25T04:01:34.218Z,10.70
2017-12-25T04:04:02.789Z,10.70
2017-12-25T04:06:31.165Z,10.70
2017-12-25T04:08:59.412Z,10.70
2017-12-25T04:11:27.706Z,10.70
2017-12-25T04:13:55.969Z,10.70
2017-12-25T04:16:24.757Z,10.80
2017-12-25T04:18:53.778Z,10.70
2017-12-25T04:21:22.052Z,10.70
2017-12-25T04:23:50.336Z,10.60
2017-12-25T04:26:18.599Z,10.60
2017-12-25T04:28:46.889Z,10.60
2017-12-25T04:31:15.149Z,10.60
2017-12-25T04:33:43.706Z,10.60
2017-12-25T04:36:12.752Z,10.60
2017-12-25T04:38:41.033Z,10.60
2017-12-25T04:41:09.317Z,10.60
2017-12-25T04:43:37.581Z,10.60
2017-12-25T04:46:05.899Z,10.60
2017-12-25T04:48:34.180Z,10.60
2017-12-25T04:51:03.569Z,10.50
2017-12-25T04:53:32.165Z,10.50
2017-12-25T04:56:00.435Z,10.50
2017-12-25T04:58:28.719Z,10.50
2017-12-25T05:00:56.980Z,10.50
2017-12-25T05:03:25.552Z,10.50
2017-12-25T05:05:53.833Z,10.50
2017-12-25T05:08:22.200Z,10.50
2017-12-25T05:10:50.496Z,10.50
2017-12-25T05:13:18.753Z,10.50
2017-12-25T05:15:47.051Z,10.50
2017-12-25T05:18:15.318Z,10.50
2017-12-25T05:20:43.930Z,10.50
2017-12-25T05:23:12.964Z,10.50
2017-12-25T05:25:41.232Z,10.50
2017-12-25T05:28:10.281Z,10.50
2017-12-25T05:30:38.544Z,10.50
2017-12-25T05:33:06.825Z,10.60
2017-12-25T05:35:35.101Z,10.50
2017-12-25T05:38:03.722Z,10.60
2017-12-25T05:40:32.285Z,10.60
2017-12-25T05:43:00.554Z,10.50
2017-12-25T05:45:28.850Z,10.50
2017-12-25T05:47:57.113Z,10.50
2017-12-25T05:50:25.798Z,10.50
2017-12-25T05:52:54.072Z,10.50
2017-12-25T05:55:22.350Z,10.50
2017-12-25T05:57:50.657Z,10.50
2017-12-25T06:00:19.702Z,10.50
2017-12-25T06:02:48.310Z,10.50
2017-12-25T06:05:16.559Z,10.50
2017-12-25T06:07:44.835Z,10.50
2017-12-25T06:10:13.124Z,10.40
2017-12-25T06:12:41.426Z,10.40
2017-12-25T06:15:10.022Z,10.40
2017-12-25T06:17:38.276Z,10.40
2017-12-25T06:20:06.555Z,10.40
2017-12-25T06:22:34.850Z,10.40
2017-12-25T06:25:03.107Z,10.30
2017-12-25T06:27:31.710Z,10.30
2017-12-25T06:29:59.994Z,10.30
2017-12-25T06:32:28.276Z,10.30
2017-12-25T06:34:56.549Z,10.30
2017-12-25T06:37:24.821Z,10.30
2017-12-25T06:39:53.118Z,10.30
2017-12-25T06:42:22.172Z,10.30
2017-12-25T06:44:51.506Z,10.30
2017-12-25T06:47:19.759Z,10.00
2017-12-25T06:49:48.030Z,10.30
2017-12-25T06:52:16.336Z,10.30
2017-12-25T06:54:44.594Z,10.30
2017-12-25T06:57:13.194Z,10.30
2017-12-25T06:59:41.451Z,10.30
2017-12-25T07:02:09.716Z,10.40
2017-12-25T07:04:38.018Z,10.40
2017-12-25T07:07:06.284Z,10.40
2017-12-25T07:09:34.561Z,10.40
2017-12-25T07:12:02.851Z,10.30
2017-12-25T07:14:31.142Z,10.30
2017-12-25T07:16:59.450Z,10.30
2017-12-25T07:19:27.763Z,10.20
2017-12-25T07:21:56.028Z,10.20
2017-12-25T07:24:24.329Z,10.30
2017-12-25T07:26:52.590Z,10.20
2017-12-25T07:29:20.898Z,10.20
2017-12-25T07:31:49.173Z,10.20
2017-12-25T07:34:17.478Z,10.20
2017-12-25T07:36:45.743Z,10.20
2017-12-25T07:39:14.465Z,10.20
2017-12-25T07:41:43.493Z,10.20
2017-12-25T07:44:11.770Z,10.20
2017-12-25T07:46:40.061Z,10.20
2017-12-25T07:49:08.335Z,10.20
2017-12-25T07:51:36.635Z,10.20
2017-12-25T07:54:04.890Z,10.20
2017-12-25T07:56:33.209Z,10.10
2017-12-25T07:59:01.463Z,10.10
2017-12-25T08:01:29.799Z,10.20
2017-12-25T08:03:58.096Z,10.10
2017-12-25T08:06:26.403Z,10.10
2017-12-25T08:08:54.645Z,10.20
2017-12-25T08:11:22.941Z,10.10
2017-12-25T08:13:51.234Z,10.10
2017-12-25T08:16:19.528Z,10.10
2017-12-25T08:18:48.576Z,10.00
2017-12-25T08:21:16.987Z,10.00
2017-12-25T08:23:45.260Z,9.90
2017-12-25T08:26:13.606Z,9.90
2017-12-25T08:28:41.839Z,9.90
2017-12-25T08:31:10.121Z,9.80
2017-12-25T08:33:39.149Z,9.90
2017-12-25T08:36:07.458Z,9.80
2017-12-25T08:38:35.868Z,9.80
2017-12-25T08:41:04.233Z,9.90
2017-12-25T08:43:32.519Z,9.90
2017-12-25T08:46:00.772Z,9.90
2017-12-25T08:48:29.083Z,9.90
2017-12-25T08:50:57.351Z,10.00
2017-12-25T08:53:26.709Z,9.90
2017-12-25T08:55:55.040Z,9.90
2017-12-25T08:58:23.364Z,10.00
2017-12-25T09:00:51.663Z,10.00
2017-12-25T09:03:19.935Z,10.00
2017-12-25T09:05:48.213Z,9.90
2017-12-25T09:08:16.497Z,10.00
2017-12-25T09:10:44.781Z,9.90
2017-12-25T09:13:13.054Z,9.90
2017-12-25T09:15:41.342Z,10.00
2017-12-25T09:18:09.653Z,10.00
2017-12-25T09:20:38.691Z,10.00
2017-12-25T09:23:07.004Z,9.90
2017-12-25T09:25:35.271Z,9.90
2017-12-25T09:28:03.891Z,9.90
2017-12-25T09:30:32.188Z,9.90
2017-12-25T09:33:00.484Z,9.90
2017-12-25T09:35:28.778Z,9.90
2017-12-25T09:37:57.031Z,9.90
2017-12-25T09:40:25.320Z,9.90
2017-12-25T09:42:53.616Z,9.90
2017-12-25T09:45:22.166Z,9.90
2017-12-25T09:47:50.449Z,9.80
2017-12-25T09:50:18.718Z,9.80
2017-12-25T09:52:47.019Z,9.80
2017-12-25T09:55:15.285Z,9.80
2017-12-25T09:57:43.602Z,9.90
2017-12-25T10:00:11.857Z,9.80
2017-12-25T10:02:40.406Z,9.80
2017-12-25T10:05:08.757Z,9.80
2017-12-25T10:07:37.021Z,9.70
2017-12-25T10:10:07.164Z,9.70
2017-12-25T10:12:35.405Z,9.80
2017-12-25T10:15:03.701Z,9.70
2017-12-25T10:17:31.980Z,9.70
2017-12-25T10:20:00.355Z,9.70
2017-12-25T10:22:28.598Z,9.70
2017-12-25T10:24:57.208Z,9.70
2017-12-25T10:27:25.468Z,9.60
2017-12-25T10:29:54.517Z,9.60
2017-12-25T10:32:22.823Z,9.60
2017-12-25T10:34:51.111Z,9.60
2017-12-25T10:37:19.397Z,9.70
2017-12-25T10:39:47.671Z,9.70
2017-12-25T10:42:15.949Z,9.70
2017-12-25T10:44:44.210Z,9.70
2017-12-25T10:47:12.756Z,9.70
2017-12-25T10:49:41.776Z,9.80
2017-12-25T10:52:10.068Z,9.80
2017-12-25T10:54:38.368Z,9.80
2017-12-25T10:57:06.634Z,9.80
2017-12-25T10:59:34.937Z,9.80
2017-12-25T11:02:03.214Z,9.80
2017-12-25T11:04:31.903Z,9.50
2017-12-25T11:07:00.201Z,9.70
2017-12-25T11:09:28.455Z,9.70
2017-12-25T11:11:56.761Z,9.60
2017-12-25T11:14:25.027Z,9.60
2017-12-25T11:16:53.309Z,9.70
2017-12-25T11:19:21.582Z,9.70
2017-12-25T11:21:49.882Z,9.70
2017-12-25T11:24:18.144Z,9.70
2017-12-25T11:26:47.510Z,9.80
2017-12-25T11:29:15.779Z,9.80
2017-12-25T11:31:44.047Z,9.80
2017-12-25T11:34:13.110Z,9.90
2017-12-25T11:36:42.170Z,9.90
2017-12-25T11:39:10.448Z,9.90
2017-12-25T11:41:38.766Z,9.90
2017-12-25T11:44:07.812Z,10.00
2017-12-25T11:46:36.501Z,10.00
2017-12-25T11:49:05.103Z,10.00
2017-12-25T11:51:37.197Z,10.00
2017-12-25T11:54:05.853Z,10.10
2017-12-25T11:56:34.125Z,10.10
2017-12-25T11:59:02.408Z,10.20
2017-12-25T12:01:30.737Z,10.20
2017-12-25T12:03:59.002Z,10.10
2017-12-25T12:06:27.304Z,10.10
2017-12-25T12:08:55.607Z,10.00
2017-12-25T12:11:24.206Z,9.90
2017-12-25T12:13:52.474Z,9.90
2017-12-25T12:16:20.742Z,9.90
2017-12-25T12:18:49.029Z,9.80
2017-12-25T12:21:17.330Z,9.80
2017-12-25T12:23:45.650Z,9.80
2017-12-25T12:26:14.728Z,9.70
2017-12-25T12:28:43.393Z,9.70
2017-12-25T12:31:11.667Z,9.70
2017-12-25T12:33:39.933Z,9.60
2017-12-25T12:36:08.249Z,9.60
2017-12-25T12:38:36.670Z,9.60
2017-12-25T12:41:04.970Z,9.60
2017-12-25T12:43:33.247Z,9.70
2017-12-25T12:46:01.845Z,9.70
2017-12-25T12:48:30.157Z,9.80
2017-12-25T12:50:58.433Z,9.90
2017-12-25T12:53:26.734Z,10.00
2017-12-25T12:55:55.045Z,10.10
2017-12-25T12:58:23.356Z,10.10
2017-12-25T13:00:52.954Z,10.30
2017-12-25T13:03:22.284Z,10.30
2017-12-25T13:05:50.632Z,10.30
2017-12-25T13:08:18.912Z,10.40
2017-12-25T13:10:47.995Z,10.40
2017-12-25T13:13:17.045Z,10.50
2017-12-25T13:15:45.346Z,10.50
2017-12-25T13:18:13.623Z,10.50
2017-12-25T13:20:42.215Z,10.50
2017-12-25T13:23:10.487Z,10.40
2017-12-25T13:25:38.759Z,10.40
2017-12-25T13:28:07.056Z,10.40
2017-12-25T13:30:35.349Z,10.40
2017-12-25T13:33:03.666Z,10.40
2017-12-25T13:35:33.021Z,10.40
2017-12-25T13:38:01.697Z,10.30
2017-12-25T13:40:29.969Z,10.30
2017-12-25T13:42:59.858Z,10.20
2017-12-25T13:45:28.140Z,10.20
2017-12-25T13:47:56.423Z,10.10
2017-12-25T13:50:24.703Z,10.10
2017-12-25T13:52:52.978Z,10.10
2017-12-25T13:55:21.606Z,10.00
2017-12-25T13:57:49.878Z,10.10
2017-12-25T14:00:18.149Z,10.00
2017-12-25T14:02:46.501Z,9.90
2017-12-25T14:05:14.774Z,9.80
2017-12-25T14:07:43.068Z,9.80
2017-12-25T14:10:11.312Z,9.70
2017-12-25T14:12:39.950Z,9.60
2017-12-25T14:15:08.223Z,9.60
2017-12-25T14:17:36.481Z,9.50
2017-12-25T14:20:04.770Z,9.50
2017-12-25T14:22:33.048Z,9.50
2017-12-25T14:25:01.334Z,9.50
2017-12-25T14:27:29.628Z,9.50
2017-12-25T14:29:58.384Z,9.40
2017-12-25T14:32:26.641Z,9.40
2017-12-25T14:34:54.914Z,9.30
2017-12-25T14:37:23.196Z,9.30
2017-12-25T14:39:51.483Z,9.20
2017-12-25T14:42:19.758Z,9.20
2017-12-25T14:44:48.042Z,9.20
2017-12-25T14:47:17.349Z,9.10
2017-12-25T14:49:45.673Z,9.10
2017-12-25T14:52:19.548Z,9.00
2017-12-25T14:54:54.593Z,9.00
2017-12-25T14:57:22.888Z,8.90
2017-12-25T14:59:51.481Z,8.90
2017-12-25T15:02:19.816Z,8.90
2017-12-25T15:04:53.946Z,8.80
2017-12-25T15:07:23.114Z,8.70
2017-12-25T15:09:51.386Z,8.70
2017-12-25T15:12:19.672Z,8.60
2017-12-25T15:14:47.943Z,8.60
2017-12-25T15:17:16.266Z,8.50
2017-12-25T15:19:44.552Z,8.50
2017-12-25T15:22:13.930Z,8.40
2017-12-25T15:24:42.192Z,8.40
2017-12-25T15:27:10.453Z,8.40
2017-12-25T15:29:38.734Z,8.30
2017-12-25T15:32:07.019Z,8.30
2017-12-25T15:34:35.314Z,8.20
2017-12-25T15:37:03.569Z,8.10
2017-12-25T15:39:32.186Z,8.00
2017-12-25T15:42:00.550Z,8.00
2017-12-25T15:44:28.947Z,7.90
2017-12-25T15:46:57.305Z,7.80
2017-12-25T15:49:27.618Z,7.80
2017-12-25T15:51:55.942Z,7.70
2017-12-25T15:54:24.213Z,7.70
2017-12-25T15:56:53.482Z,7.60
2017-12-25T15:59:21.955Z,7.50
2017-12-25T16:01:50.291Z,7.50
2017-12-25T16:04:18.614Z,7.40
2017-12-25T16:06:46.886Z,7.30
2017-12-25T16:09:15.174Z,7.20
2017-12-25T16:11:43.454Z,7.20
2017-12-25T16:14:12.072Z,7.10
2017-12-25T16:16:40.330Z,7.00
2017-12-25T16:19:08.583Z,6.80
2017-12-25T16:21:36.874Z,6.70
2017-12-25T16:24:05.182Z,6.60
2017-12-25T16:26:33.477Z,6.60
2017-12-25T16:29:02.511Z,6.50
2017-12-25T16:31:31.844Z,6.40
2017-12-25T16:34:00.110Z,6.40
2017-12-25T16:36:28.423Z,6.40
2017-12-25T16:38:56.731Z,6.30
2017-12-25T16:41:24.983Z,6.30
2017-12-25T16:43:53.293Z,6.30
2017-12-25T16:46:21.614Z,6.20
2017-12-25T16:48:53.576Z,6.20
2017-12-25T16:51:21.846Z,6.10
2017-12-25T16:53:50.175Z,6.10
2017-12-25T16:56:19.298Z,6.00
2017-12-25T16:58:50.808Z,5.90
2017-12-25T17:01:20.204Z,5.90
2017-12-25T17:03:56.180Z,5.80
2017-12-25T17:06:25.602Z,5.70
2017-12-25T17:08:53.953Z,5.70
2017-12-25T17:11:22.371Z,5.60
2017-12-25T17:13:50.731Z,5.60
2017-12-25T17:16:19.013Z,5.60
2017-12-25T17:18:47.395Z,5.60
2017-12-25T17:21:15.733Z,5.50
2017-12-25T17:23:44.385Z,5.50
2017-12-25T17:26:12.642Z,5.40
2017-12-25T17:28:40.992Z,5.40
2017-12-25T17:31:10.089Z,5.30
2017-12-25T17:33:39.272Z,5.30
2017-12-25T17:36:07.564Z,5.30
2017-12-25T17:38:36.880Z,5.20
2017-12-25T17:41:09.768Z,5.20
2017-12-25T17:43:39.398Z,5.20
2017-12-25T17:46:07.836Z,5.20
2017-12-25T17:48:36.152Z,5.10
2017-12-25T17:51:04.737Z,5.10
2017-12-25T17:53:33.053Z,5.00
2017-12-25T17:56:01.385Z,5.00
2017-12-25T17:58:29.885Z,5.00
2017-12-25T18:00:58.171Z,4.90
2017-12-25T18:03:28.012Z,4.90
2017-12-25T18:05:56.380Z,4.90
2017-12-25T18:08:24.693Z,4.90
2017-12-25T18:10:53.046Z,4.90
2017-12-25T18:13:21.303Z,4.80
2017-12-25T18:15:50.026Z,4.80
2017-12-25T18:18:18.303Z,4.80
2017-12-25T18:20:46.561Z,4.80
2017-12-25T18:23:14.862Z,4.70
2017-12-25T18:25:43.155Z,4.60
2017-12-25T18:28:12.222Z,4.50
2017-12-25T18:30:40.498Z,4.50
2017-12-25T18:33:09.057Z,4.50
2017-12-25T18:35:37.329Z,4.40
2017-12-25T18:38:05.648Z,4.40
2017-12-25T18:40:33.993Z,4.40
2017-12-25T18:43:02.285Z,4.30
2017-12-25T18:45:30.573Z,4.30
2017-12-25T18:47:58.898Z,4.20
2017-12-25T18:50:28.231Z,4.10
2017-12-25T18:52:56.610Z,4.10
2017-12-25T18:55:24.868Z,4.10
2017-12-25T18:57:53.161Z,4.00
2017-12-25T19:00:21.408Z,4.00
2017-12-25T19:02:49.770Z,4.00
2017-12-25T19:05:18.057Z,3.90
2017-12-25T19:07:47.116Z,3.90
2017-12-25T19:10:15.395Z,3.90
2017-12-25T19:12:44.109Z,3.90
2017-12-25T19:15:12.401Z,3.90
2017-12-25T19:17:40.707Z,3.90
2017-12-25T19:20:09.013Z,3.90
2017-12-25T19:22:37.369Z,3.90
2017-12-25T19:25:05.689Z,3.80
2017-12-25T19:27:33.977Z,3.80
2017-12-25T19:30:02.556Z,3.80
2017-12-25T19:32:30.829Z,3.80
2017-12-25T19:34:59.136Z,3.80
2017-12-25T19:37:28.212Z,3.80
2017-12-25T19:39:56.470Z,3.80
2017-12-25T19:42:24.817Z,3.80
2017-12-25T19:44:53.073Z,3.80
2017-12-25T19:47:22.029Z,3.90
2017-12-25T19:49:51.081Z,3.90
2017-12-25T19:52:19.346Z,3.90
2017-12-25T19:54:47.681Z,4.00
2017-12-25T19:57:15.946Z,4.00
2017-12-25T19:59:44.240Z,4.10
2017-12-25T20:02:12.556Z,4.10
2017-12-25T20:04:41.087Z,4.10
2017-12-25T20:07:09.445Z,4.10
2017-12-25T20:09:37.766Z,4.10
2017-12-25T20:12:06.067Z,4.10
2017-12-25T20:14:35.100Z,4.10
2017-12-25T20:17:03.385Z,4.10
2017-12-25T20:19:31.701Z,4.10
2017-12-25T20:22:00.011Z,4.10
2017-12-25T20:24:28.310Z,4.00
2017-12-25T20:26:56.608Z,4.00
2017-12-25T20:29:24.958Z,4.00
2017-12-25T20:31:53.337Z,4.00
2017-12-25T20:34:21.645Z,4.00
2017-12-25T20:36:49.939Z,4.00
2017-12-25T20:39:18.235Z,3.90
2017-12-25T20:41:47.290Z,3.90
2017-12-25T20:44:15.564Z,3.90
2017-12-25T20:46:43.886Z,3.90
2017-12-25T20:49:13.004Z,4.00
2017-12-25T20:51:41.824Z,3.90
2017-12-25T20:54:10.082Z,4.00
2017-12-25T20:56:38.849Z,4.00
2017-12-25T20:59:07.148Z,4.00
2017-12-25T21:01:35.452Z,4.00
2017-12-25T21:04:03.752Z,4.00
2017-12-25T21:06:32.778Z,4.00
2017-12-25T21:09:02.142Z,4.10
2017-12-25T21:11:31.921Z,4.10
2017-12-25T21:14:00.182Z,4.10
2017-12-25T21:16:28.561Z,4.10
2017-12-25T21:18:57.604Z,4.30
2017-12-25T21:21:25.906Z,4.20
2017-12-25T21:23:54.196Z,4.30
2017-12-25T21:26:22.741Z,4.30
2017-12-25T21:28:51.017Z,4.30
2017-12-25T21:31:19.292Z,4.40
2017-12-25T21:33:47.612Z,4.40
2017-12-25T21:36:16.646Z,4.40
2017-12-25T21:38:45.733Z,4.40
2017-12-25T21:41:14.356Z,4.30
2017-12-25T21:43:42.939Z,4.40
2017-12-25T21:46:11.214Z,4.40
2017-12-25T21:48:39.576Z,4.40
2017-12-25T21:51:07.906Z,4.50
2017-12-25T21:53:36.935Z,4.50
2017-12-25T21:56:05.247Z,4.50
2017-12-25T21:58:34.334Z,4.50
2017-12-25T22:01:02.895Z,4.50
2017-12-25T22:03:31.491Z,4.50
2017-12-25T22:05:59.793Z,4.40
2017-12-25T22:11:01.564Z,4.30
2017-12-25T22:13:30.226Z,4.30
2017-12-25T22:15:58.625Z,4.30
2017-12-25T22:18:26.906Z,4.30
2017-12-25T22:20:55.250Z,4.20
2017-12-25T22:23:23.558Z,4.20
2017-12-25T22:25:51.935Z,4.10
2017-12-25T22:28:20.903Z,4.00
2017-12-25T22:30:50.530Z,4.00
2017-12-25T22:33:18.879Z,3.90
2017-12-25T22:35:47.296Z,3.90
2017-12-25T22:38:15.653Z,3.80
2017-12-25T22:40:44.011Z,3.70
2017-12-25T22:43:13.171Z,3.60
2017-12-25T22:45:41.467Z,3.60
2017-12-25T22:48:10.144Z,3.60
2017-12-25T22:50:38.450Z,3.60
2017-12-25T22:53:07.689Z,3.50
2017-12-25T22:55:36.026Z,3.60
2017-12-25T22:58:05.286Z,3.80
2017-12-25T23:00:33.753Z,3.70
2017-12-25T23:03:02.067Z,3.90
2017-12-25T23:05:31.462Z,4.10
2017-12-25T23:07:59.830Z,4.40
2017-12-25T23:10:28.374Z,4.60
2017-12-25T23:12:56.741Z,4.80
2017-12-25T23:15:25.035Z,5.10
2017-12-25T23:17:53.389Z,5.50
2017-12-25T23:20:21.774Z,5.40
2017-12-25T23:22:50.467Z,5.50
2017-12-25T23:25:19.577Z,5.60
2017-12-25T23:27:48.706Z,5.60
2017-12-25T23:30:17.030Z,5.60
2017-12-25T23:32:45.366Z,5.60
2017-12-25T23:35:13.727Z,5.60
2017-12-25T23:37:42.094Z,5.70
2017-12-25T23:40:11.487Z,5.80
2017-12-25T23:42:40.551Z,5.90
2017-12-25T23:45:08.845Z,5.90
2017-12-25T23:47:37.154Z,6.00
2017-12-25T23:50:05.982Z,6.10
2017-12-25T23:52:34.493Z,6.20
2017-12-25T23:55:02.869Z,6.20
2017-12-25T23:57:31.453Z,6.10
2017-12-25T23:59:59.732Z,6.20
